メインページ
METAR-TAF:

METAR-TAF

空港 :

成都, 中華人民共和国

成都双流国際空港

緯度: 30-40N, 経度: 104-01E, 海抜: 508m

現時点の気象観測

当レポートは47分前の05:00(UTC)に作成
北/北西の風 4kt、西から北/北東の間で変化する
気温 29°C
湿度 79%
気圧 1005 hPa
視程10km以上
高度5000ftの雲は散在している

METAR: ZUUU 200500Z 33002MPS 270V020 9999 SCT050 29/25 Q1005 NOSIG

時間: 13:47 (05:47 UTC)

予報

当レポートは3時間35分前の02:12(UTC)に作成
予報は20日の 06時(UTC)から 21日の 06時(UTC)まで有効
の風 6kt
視程: 5000m
高度5000ftの雲は散在している
20日の 10時(UTC)から 20日の 14時(UTC)まで一時的に
高度3000ftの雲はほとんどない, 積乱雲.
高度3000ftの雲は散在している
にわか雨

TAF: ZUUU 200212Z 2006/2106 36003MPS 5000 BR SCT050 TX32/2007Z TN26/2023Z TEMPO 2010/2014 SHRA FEW030CB SCT030

4,000以上の空港の気象観測と天気予報(METAR報とTAF報)

利用可能な観測所は地図上に黄色い丸と赤い丸で示す。

丸の上にカーソルを重ねると観測所名を参照できる。

次にクリックすると気象観測と天気予報を参照できる。

マップの切り替え:黒色「×」印の緑ボタンをクリックして拡大、「-」印の緑ボタンをクリックして縮小、緑色の三角印をクリックして隣りの地図に切り替え


METAR-TAF: